Time;durP1;ratioP1;P1;durP2;ratioP2;P2;SDS_P1;SDS_P2;PMS_P1;PMS_P2;Temp;Humidity;BMP_temperature;BMP_pressure;BME280_temperature;BME280_humidity;BME280_pressure;Samples;Min_cycle;Max_cycle;Signal;HPM_P1;HPM_P2
2023/09/01 00:01:38;;;;;;;6.27;5.23;;;;;;;13.59;100.00;99880.53;5012037;28;20233;-70
2023/09/01 00:04:03;;;;;;;6.13;5.37;;;;;;;13.62;100.00;99877.75;5015885;28;20670;-69
2023/09/01 00:06:28;;;;;;;8.87;5.30;;;;;;;13.71;100.00;99877.06;5016228;28;20270;-69
2023/09/01 00:08:54;;;;;;;7.67;5.40;;;;;;;13.75;100.00;99882.84;5015441;28;20666;-68
2023/09/01 00:11:20;;;;;;;5.80;5.20;;;;;;;13.67;100.00;99880.00;5015795;28;20249;-69
2023/09/01 00:13:45;;;;;;;7.90;5.33;;;;;;;13.60;100.00;99876.19;5009398;28;20198;-69
2023/09/01 00:16:11;;;;;;;6.37;5.03;;;;;;;13.65;100.00;99856.81;5015132;28;20638;-68
2023/09/01 00:18:36;;;;;;;6.47;5.67;;;;;;;13.70;100.00;99861.69;5015086;28;20245;-68
2023/09/01 00:21:06;;;;;;;8.03;6.80;;;;;;;13.76;100.00;99857.84;5006844;28;20230;-67
2023/09/01 00:23:34;;;;;;;7.10;6.40;;;;;;;13.84;100.00;99858.94;5022059;28;20187;-68
2023/09/01 00:26:01;;;;;;;7.67;6.90;;;;;;;13.96;100.00;99867.56;5014722;28;20190;-68
2023/09/01 00:28:27;;;;;;;7.77;7.00;;;;;;;13.92;100.00;99858.38;5013627;28;20171;-68
2023/09/01 00:31:00;;;;;;;9.83;8.07;;;;;;;13.87;100.00;99861.28;5013846;28;20236;-68
2023/09/01 00:33:30;;;;;;;9.33;8.30;;;;;;;13.81;100.00;99859.13;5048134;28;20242;-67
2023/09/01 00:35:56;;;;;;;11.20;8.40;;;;;;;13.92;100.00;99854.94;5033955;28;20299;-68
2023/09/01 00:38:24;;;;;;;10.67;8.30;;;;;;;13.93;100.00;99860.03;5032091;28;20209;-68
2023/09/01 00:40:50;;;;;;;10.23;9.17;;;;;;;13.88;100.00;99856.97;5019783;28;20689;-68
2023/09/01 00:43:16;;;;;;;9.70;8.80;;;;;;;13.94;100.00;99855.66;5024084;28;20190;-67
2023/09/01 00:45:41;;;;;;;10.87;8.73;;;;;;;13.96;100.00;99861.56;5012651;28;20175;-68
2023/09/01 00:48:10;;;;;;;9.60;8.70;;;;;;;13.94;100.00;99856.50;5014913;28;20206;-67
2023/09/01 00:50:36;;;;;;;11.77;9.30;;;;;;;13.96;100.00;99849.44;5013355;28;20294;-68
2023/09/01 00:53:02;;;;;;;10.60;9.60;;;;;;;13.86;100.00;99846.69;5045147;28;20210;-68
2023/09/01 00:55:29;;;;;;;9.70;8.80;;;;;;;13.92;100.00;99844.59;5033148;28;20182;-68
2023/09/01 00:57:54;;;;;;;10.33;9.30;;;;;;;13.79;100.00;99842.09;5032505;28;20269;-68
2023/09/01 01:00:19;;;;;;;10.57;9.40;;;;;;;13.95;100.00;99844.41;5022454;28;20317;-69
2023/09/01 01:02:46;;;;;;;10.30;9.33;;;;;;;13.97;100.00;99835.59;5027196;28;20183;-69
2023/09/01 01:05:16;;;;;;;10.03;9.13;;;;;;;13.67;100.00;99834.28;5022906;28;20643;-68
2023/09/01 01:08:09;;;;;;;10.60;9.53;;;;;;;13.63;100.00;99825.13;5013209;28;20531;-68
2023/09/01 01:10:42;;;;;;;10.63;9.73;;;;;;;13.81;100.00;99822.13;4998495;28;20222;-69
2023/09/01 01:13:15;;;;;;;10.80;9.83;;;;;;;13.84;100.00;99821.91;5004790;28;20283;-70
2023/09/01 01:15:42;;;;;;;10.93;10.00;;;;;;;13.75;100.00;99825.16;5011448;28;20178;-69
2023/09/01 01:18:11;;;;;;;11.27;10.27;;;;;;;13.79;100.00;99826.59;5014229;28;20194;-69
2023/09/01 01:21:15;;;;;;;10.47;9.53;;;;;;;13.64;100.00;99813.81;5008503;28;20234;-69
2023/09/01 01:23:42;;;;;;;9.67;8.87;;;;;;;13.77;100.00;99818.09;5019464;28;20186;-69
2023/09/01 01:26:12;;;;;;;10.13;9.23;;;;;;;13.81;100.00;99812.59;5013829;28;20179;-69
2023/09/01 01:28:39;;;;;;;9.80;8.90;;;;;;;13.96;100.00;99815.03;5013922;28;20293;-69
2023/09/01 01:31:04;;;;;;;9.87;9.07;;;;;;;13.98;100.00;99813.97;5005716;28;20291;-69
2023/09/01 01:33:52;;;;;;;9.10;8.40;;;;;;;13.72;100.00;99814.09;5021090;28;20272;-69
2023/09/01 01:36:33;;;;;;;7.93;7.23;;;;;;;13.79;100.00;99822.25;5013341;28;20190;-68
2023/09/01 01:39:05;;;;;;;7.63;6.90;;;;;;;13.71;100.00;99821.97;5013717;28;20210;-69
2023/09/01 01:41:39;;;;;;;7.43;6.73;;;;;;;13.80;100.00;99823.06;5027077;28;20282;-70
2023/09/01 01:44:06;;;;;;;7.10;6.50;;;;;;;13.79;100.00;99816.25;5035726;28;20174;-69
2023/09/01 01:46:33;;;;;;;6.73;6.13;;;;;;;13.91;100.00;99825.69;5032089;28;20210;-70
2023/09/01 01:48:58;;;;;;;6.73;6.17;;;;;;;13.87;100.00;99819.09;5033361;28;20190;-70
2023/09/01 01:51:23;;;;;;;9.80;7.10;;;;;;;13.80;100.00;99812.72;5013369;28;20226;-70
2023/09/01 01:53:49;;;;;;;6.43;5.93;;;;;;;13.94;100.00;99817.72;5014021;28;20207;-70
2023/09/01 01:56:15;;;;;;;6.70;6.00;;;;;;;13.94;100.00;99811.72;5011331;28;20281;-71
2023/09/01 01:58:41;;;;;;;6.97;6.37;;;;;;;13.96;100.00;99810.66;5012046;28;20221;-70
2023/09/01 02:01:07;;;;;;;7.27;6.57;;;;;;;13.84;100.00;99811.56;5004875;28;20245;-69
2023/09/01 02:03:32;;;;;;;7.33;6.63;;;;;;;13.96;100.00;99809.84;5020308;28;20194;-70
2023/09/01 02:05:57;;;;;;;7.40;6.80;;;;;;;13.99;100.00;99807.88;5012300;28;20179;-70
2023/09/01 02:08:22;;;;;;;6.60;5.90;;;;;;;14.02;100.00;99809.41;5011821;28;20575;-70
2023/09/01 02:10:48;;;;;;;6.43;5.70;;;;;;;13.84;100.00;99804.66;5008769;28;20213;-70
2023/09/01 02:13:14;;;;;;;5.83;5.33;;;;;;;13.89;100.00;99809.47;5022066;28;20191;-70
2023/09/01 02:15:39;;;;;;;5.80;5.30;;;;;;;13.99;100.00;99801.84;5012201;28;20205;-70
2023/09/01 02:18:08;;;;;;;5.40;5.00;;;;;;;14.07;100.00;99806.47;5011950;28;20306;-70
2023/09/01 02:20:37;;;;;;;5.00;4.60;;;;;;;14.14;100.00;99800.72;5006767;28;20217;-70
2023/09/01 02:23:02;;;;;;;5.03;4.63;;;;;;;14.20;100.00;99805.44;5011740;28;20657;-70
2023/09/01 02:25:27;;;;;;;4.57;4.17;;;;;;;14.18;100.00;99807.31;5011051;28;20463;-70
2023/09/01 02:27:53;;;;;;;4.87;4.47;;;;;;;14.20;100.00;99808.03;5012725;28;20174;-70
2023/09/01 02:30:18;;;;;;;5.10;4.70;;;;;;;14.11;100.00;99808.69;5006737;28;20182;-70
2023/09/01 02:32:43;;;;;;;4.30;4.00;;;;;;;14.00;100.00;99809.53;5034316;28;20210;-70
2023/09/01 02:35:09;;;;;;;6.20;4.00;;;;;;;14.00;100.00;99803.50;5030579;28;20178;-70
2023/09/01 02:37:35;;;;;;;4.80;4.03;;;;;;;14.09;100.00;99797.66;5028634;28;20183;-70
2023/09/01 02:40:00;;;;;;;4.37;3.97;;;;;;;14.10;100.00;99801.88;5029663;28;20174;-70
2023/09/01 02:42:26;;;;;;;4.90;3.70;;;;;;;14.06;100.00;99807.41;5001567;28;20365;-70
2023/09/01 02:44:52;;;;;;;4.27;3.87;;;;;;;14.06;100.00;99803.06;5026809;28;20171;-70
2023/09/01 02:47:17;;;;;;;4.33;3.80;;;;;;;14.19;100.00;99805.56;5012489;28;20190;-70
2023/09/01 02:49:42;;;;;;;3.83;3.40;;;;;;;14.16;100.00;99804.00;5012149;28;20174;-70
2023/09/01 02:52:08;;;;;;;3.60;3.20;;;;;;;14.19;100.00;99805.56;5020360;28;20671;-70
2023/09/01 02:54:33;;;;;;;3.93;3.30;;;;;;;14.14;100.00;99805.91;5031205;28;20182;-69
2023/09/01 02:56:58;;;;;;;4.67;3.73;;;;;;;14.20;100.00;99802.03;5030613;28;20216;-69
2023/09/01 02:59:24;;;;;;;3.70;3.40;;;;;;;14.27;100.00;99800.63;5031789;28;20658;-69
2023/09/01 03:01:49;;;;;;;3.57;3.23;;;;;;;14.16;100.00;99808.38;5020690;28;20642;-69
2023/09/01 03:04:15;;;;;;;3.80;3.50;;;;;;;14.22;100.00;99804.50;4994268;28;20179;-69
2023/09/01 03:06:40;;;;;;;3.80;3.50;;;;;;;14.06;100.00;99807.41;5010882;28;20575;-69
2023/09/01 03:09:05;;;;;;;4.20;3.80;;;;;;;14.13;100.00;99806.84;5010671;28;20519;-69
2023/09/01 03:11:31;;;;;;;3.50;3.30;;;;;;;14.13;100.00;99806.03;5003112;28;20218;-69
2023/09/01 03:13:56;;;;;;;4.40;3.70;;;;;;;14.19;100.00;99801.22;5014816;28;20276;-69
2023/09/01 03:16:22;;;;;;;4.07;3.67;;;;;;;14.25;100.00;99805.13;5011314;28;20496;-69
2023/09/01 03:18:47;;;;;;;3.50;3.20;;;;;;;14.19;100.00;99802.97;5010101;28;20167;-70
2023/09/01 03:21:13;;;;;;;5.87;3.90;;;;;;;14.22;100.00;99804.50;5013172;28;20244;-70
2023/09/01 03:23:39;;;;;;;3.70;3.40;;;;;;;14.20;100.00;99802.03;5037044;28;20182;-71
2023/09/01 03:26:05;;;;;;;3.93;3.53;;;;;;;14.23;100.00;99796.63;5031130;28;20577;-70
2023/09/01 03:28:33;;;;;;;3.80;3.40;;;;;;;14.22;100.00;99794.97;5031436;28;20584;-71
2023/09/01 03:30:59;;;;;;;4.20;3.90;;;;;;;14.19;100.00;99797.81;5000627;28;20353;-70
2023/09/01 03:33:24;;;;;;;4.00;3.70;;;;;;;14.20;100.00;99783.91;5030796;28;20220;-70
2023/09/01 03:35:50;;;;;;;4.47;4.07;;;;;;;14.18;100.00;99791.78;5030931;28;20182;-69
2023/09/01 03:38:15;;;;;;;4.27;3.87;;;;;;;14.22;100.00;99791.59;5029449;28;20273;-70
2023/09/01 03:40:41;;;;;;;4.93;4.50;;;;;;;14.22;100.00;99800.16;5017943;28;20234;-70
2023/09/01 03:43:07;;;;;;;3.97;3.57;;;;;;;14.24;100.00;99805.22;5009419;28;20261;-70
2023/09/01 03:45:32;;;;;;;10.07;4.13;;;;;;;14.22;100.00;99791.59;5011477;28;20171;-71
2023/09/01 03:47:57;;;;;;;4.90;4.50;;;;;;;14.18;100.00;99794.38;5011514;28;20179;-70
2023/09/01 03:50:23;;;;;;;4.30;3.90;;;;;;;14.27;100.00;99790.28;5004405;28;20678;-71
2023/09/01 03:52:48;;;;;;;4.37;4.07;;;;;;;14.31;100.00;99796.06;5023755;28;20210;-70
2023/09/01 03:55:13;;;;;;;4.67;4.27;;;;;;;14.40;100.00;99794.53;5011104;28;20199;-70
2023/09/01 03:57:39;;;;;;;4.50;4.10;;;;;;;14.45;100.00;99798.44;5009822;28;20557;-70
2023/09/01 04:00:08;;;;;;;4.80;4.40;;;;;;;14.44;100.00;99793.38;5001502;28;20264;-71
2023/09/01 04:02:34;;;;;;;5.23;4.83;;;;;;;14.30;100.00;99787.47;5025795;28;20178;-70
2023/09/01 04:04:59;;;;;;;4.93;4.43;;;;;;;14.40;100.00;99781.59;5009755;28;20182;-70
2023/09/01 04:07:24;;;;;;;5.50;5.00;;;;;;;14.47;100.00;99793.94;5011290;28;20240;-69
2023/09/01 04:09:50;;;;;;;5.50;5.00;;;;;;;14.46;100.00;99796.66;5010058;28;20607;-70
2023/09/01 04:12:15;;;;;;;5.30;4.77;;;;;;;14.41;100.00;99794.41;5016066;28;20265;-69
2023/09/01 04:14:40;;;;;;;4.60;4.20;;;;;;;14.49;100.00;99797.25;5020963;28;20186;-70
2023/09/01 04:17:05;;;;;;;5.90;5.07;;;;;;;14.53;100.00;99792.66;5031013;28;20641;-70
2023/09/01 04:19:31;;;;;;;5.33;4.90;;;;;;;14.52;100.00;99786.69;5029716;28;20184;-69
2023/09/01 04:21:56;;;;;;;6.20;5.60;;;;;;;14.51;100.00;99792.78;5018981;28;20360;-69
2023/09/01 04:24:21;;;;;;;5.90;5.30;;;;;;;14.55;100.00;99795.97;5011784;28;20659;-70
2023/09/01 04:26:46;;;;;;;5.30;4.90;;;;;;;14.60;100.00;99791.25;5011052;28;20206;-70
2023/09/01 04:29:12;;;;;;;4.53;4.10;;;;;;;14.62;100.00;99797.13;5010674;28;20185;-70
2023/09/01 04:31:37;;;;;;;4.80;4.20;;;;;;;14.55;100.00;99784.78;5029302;28;20662;-70
2023/09/01 04:34:03;;;;;;;4.93;4.53;;;;;;;14.52;100.00;99797.03;5032831;28;20661;-70
2023/09/01 04:36:28;;;;;;;5.00;4.60;;;;;;;14.64;100.00;99805.63;5033046;28;20178;-70
2023/09/01 04:38:53;;;;;;;4.20;3.80;;;;;;;14.57;100.00;99803.63;5029548;28;20625;-70
2023/09/01 04:41:19;;;;;;;4.13;3.83;;;;;;;14.56;100.00;99795.00;5023542;28;20713;-70
2023/09/01 04:43:44;;;;;;;3.93;3.63;;;;;;;14.55;100.00;99802.91;5020011;28;20186;-70
2023/09/01 04:46:09;;;;;;;4.97;3.43;;;;;;;14.61;100.00;99800.69;5014054;28;20886;-70
2023/09/01 04:48:35;;;;;;;3.27;2.97;;;;;;;14.54;100.00;99809.84;5014740;28;20253;-69
2023/09/01 04:51:02;;;;;;;3.83;3.20;;;;;;;14.58;100.00;99816.44;5017174;28;20248;-71
2023/09/01 04:53:28;;;;;;;3.17;2.87;;;;;;;14.65;100.00;99824.59;5031405;28;20703;-70
2023/09/01 04:55:53;;;;;;;3.70;3.40;;;;;;;14.69;100.00;99819.06;5032009;28;20174;-70
2023/09/01 04:58:18;;;;;;;3.90;3.37;;;;;;;14.70;100.00;99825.06;5032736;28;20634;-70
2023/09/01 05:00:44;;;;;;;4.30;4.00;;;;;;;14.80;100.00;99818.25;5023519;28;20237;-70
2023/09/01 05:03:10;;;;;;;4.60;4.20;;;;;;;14.78;100.00;99820.13;5024102;28;20206;-70
2023/09/01 05:05:35;;;;;;;4.40;4.10;;;;;;;14.88;100.00;99824.59;5013698;28;20225;-70
2023/09/01 05:08:00;;;;;;;4.50;4.20;;;;;;;14.84;100.00;99817.06;5012705;28;20544;-70
2023/09/01 05:10:25;;;;;;;5.00;4.60;;;;;;;14.89;100.00;99821.88;5008032;28;20240;-70
2023/09/01 05:12:51;;;;;;;4.77;4.47;;;;;;;15.00;100.00;99819.28;5032279;28;20609;-70
2023/09/01 05:15:16;;;;;;;6.53;4.17;;;;;;;15.01;100.00;99825.31;5033441;28;20177;-70
2023/09/01 05:17:41;;;;;;;6.80;5.37;;;;;;;15.09;100.00;99822.91;5033818;28;20174;-69
2023/09/01 05:20:07;;;;;;;4.73;4.33;;;;;;;15.15;100.00;99827.63;5023624;28;20185;-70
2023/09/01 05:22:33;;;;;;;5.60;5.20;;;;;;;14.98;100.00;99831.56;5012447;28;20226;-70
2023/09/01 05:24:58;;;;;;;7.57;5.30;;;;;;;14.98;100.00;99828.97;5012002;28;20214;-70
2023/09/01 05:27:23;;;;;;;7.47;5.83;;;;;;;14.97;100.00;99831.66;5013776;28;20217;-70
2023/09/01 05:29:49;;;;;;;6.13;5.53;;;;;;;15.00;100.00;99834.81;5013311;28;20194;-69
2023/09/01 05:32:16;;;;;;;7.30;5.03;;;;;;;14.95;100.00;99836.94;5021752;28;20309;-69
2023/09/01 05:34:41;;;;;;;7.37;5.50;;;;;;;14.97;100.00;99840.25;5033049;28;20194;-70
2023/09/01 05:37:08;;;;;;;11.73;5.60;;;;;;;15.01;100.00;99835.66;5033502;28;20178;-70
2023/09/01 05:39:36;;;;;;;7.90;5.63;;;;;;;14.95;100.00;99826.59;5032391;28;20182;-70
2023/09/01 05:42:02;;;;;;;5.63;5.10;;;;;;;14.83;100.00;99818.03;5040893;28;20773;-70
2023/09/01 05:44:28;;;;;;;8.27;5.83;;;;;;;14.84;100.00;99832.59;5028876;28;20232;-70
2023/09/01 05:46:53;;;;;;;6.10;5.50;;;;;;;14.95;100.00;99831.78;5033602;28;20170;-69
2023/09/01 05:49:18;;;;;;;5.23;4.80;;;;;;;15.08;100.00;99839.44;5033109;28;20186;-70
2023/09/01 05:51:43;;;;;;;6.10;5.50;;;;;;;15.12;100.00;99827.88;5033963;28;20603;-70
2023/09/01 05:54:09;;;;;;;6.90;6.30;;;;;;;14.99;100.00;99828.00;5034956;28;20267;-70
2023/09/01 05:56:34;;;;;;;5.90;5.20;;;;;;;14.84;100.00;99837.78;5033290;28;20181;-70
2023/09/01 05:58:59;;;;;;;5.93;5.37;;;;;;;14.81;100.00;99835.44;5031282;28;20264;-70
2023/09/01 06:01:25;;;;;;;5.60;4.90;;;;;;;14.91;100.00;99842.47;5021548;28;20226;-70
2023/09/01 06:03:50;;;;;;;5.67;5.10;;;;;;;14.97;100.00;99836.81;5017638;28;20187;-69
2023/09/01 06:06:15;;;;;;;5.97;5.37;;;;;;;14.86;100.00;99835.09;5012975;28;20183;-69
2023/09/01 06:08:41;;;;;;;6.27;5.67;;;;;;;14.82;100.00;99837.09;5013617;28;20177;-69
2023/09/01 06:11:08;;;;;;;7.80;7.00;;;;;;;14.93;100.00;99833.66;5013354;28;20585;-69
2023/09/01 06:13:34;;;;;;;5.90;5.30;;;;;;;15.14;100.00;99838.97;5020926;28;20206;-69
2023/09/01 06:16:02;;;;;;;6.13;4.93;;;;;;;15.12;100.00;99840.84;5032569;28;20186;-69
2023/09/01 06:18:27;;;;;;;4.47;4.07;;;;;;;15.16;100.00;99836.25;5031594;28;20182;-69
2023/09/01 06:20:53;;;;;;;4.93;4.43;;;;;;;15.03;100.00;99818.22;5021987;28;20291;-69
2023/09/01 06:23:18;;;;;;;4.20;3.80;;;;;;;15.01;100.00;99826.13;5021530;28;20245;-69
2023/09/01 06:25:43;;;;;;;4.20;3.90;;;;;;;15.10;100.00;99821.97;5011853;28;20171;-71
2023/09/01 06:28:09;;;;;;;3.90;3.60;;;;;;;15.15;100.00;99827.63;5013014;28;20197;-70
2023/09/01 06:30:35;;;;;;;4.67;4.17;;;;;;;15.30;100.00;99838.56;5006594;28;20222;-71
2023/09/01 06:33:01;;;;;;;4.63;4.07;;;;;;;15.46;100.00;99834.75;5011368;28;20625;-71
2023/09/01 06:35:26;;;;;;;4.07;3.77;;;;;;;15.51;100.00;99842.19;5012096;28;20183;-72
2023/09/01 06:37:51;;;;;;;3.93;3.53;;;;;;;15.61;100.00;99841.31;5010917;28;20182;-73
2023/09/01 06:40:17;;;;;;;3.67;3.37;;;;;;;15.48;100.00;99843.25;5003135;28;20240;-73
2023/09/01 06:42:42;;;;;;;4.20;3.80;;;;;;;15.44;100.00;99841.81;5025350;28;20197;-72
2023/09/01 06:45:07;;;;;;;4.33;3.93;;;;;;;15.35;100.00;99845.97;5012241;28;20178;-73
2023/09/01 06:47:33;;;;;;;3.50;3.20;;;;;;;15.43;100.00;99837.59;5012642;28;20183;-75
2023/09/01 06:49:58;;;;;;;3.80;3.50;;;;;;;15.34;100.00;99846.91;5012289;28;20186;-73
2023/09/01 06:52:23;;;;;;;4.37;3.70;;;;;;;15.40;100.00;99840.44;5016545;28;20222;-71
2023/09/01 06:54:50;;;;;;;3.50;3.20;;;;;;;15.46;100.00;99845.94;5010460;28;20186;-69
2023/09/01 06:57:15;;;;;;;3.73;3.43;;;;;;;15.59;100.00;99837.19;5027888;28;20179;-69
2023/09/01 06:59:40;;;;;;;3.17;2.97;;;;;;;15.72;100.00;99844.81;5012321;28;20654;-71
2023/09/01 07:02:05;;;;;;;2.87;2.67;;;;;;;15.42;100.00;99848.91;5017137;28;20221;-72
2023/09/01 07:04:31;;;;;;;3.30;3.10;;;;;;;15.47;100.00;99849.38;5010486;28;20182;-73
2023/09/01 07:06:57;;;;;;;2.97;2.77;;;;;;;15.52;100.00;99849.00;5026961;28;20183;-74
2023/09/01 07:09:22;;;;;;;3.37;3.07;;;;;;;15.49;100.00;99850.91;5011947;28;20183;-73
2023/09/01 07:11:47;;;;;;;3.33;3.10;;;;;;;15.57;100.00;99859.84;5015421;28;20253;-70
2023/09/01 07:14:13;;;;;;;5.67;3.53;;;;;;;15.65;100.00;99850.50;5013229;28;20320;-62
2023/09/01 07:16:38;;;;;;;3.33;2.47;;;;;;;15.70;100.00;99852.72;5012010;28;20253;-61
2023/09/01 07:19:03;;;;;;;3.10;2.80;;;;;;;15.66;100.00;99848.72;5011945;28;20197;-62
2023/09/01 07:21:28;;;;;;;2.90;2.70;;;;;;;15.68;100.00;99852.03;5011869;28;20652;-61
2023/09/01 07:23:54;;;;;;;3.70;2.83;;;;;;;15.72;100.00;99852.59;5014519;28;20177;-61
2023/09/01 07:26:19;;;;;;;3.40;3.10;;;;;;;15.69;100.00;99850.25;5010662;28;20277;-61
2023/09/01 07:28:44;;;;;;;4.80;3.50;;;;;;;15.66;100.00;99853.91;5011762;28;20262;-60
2023/09/01 07:31:12;;;;;;;4.70;4.40;;;;;;;15.68;100.00;99853.78;4972822;28;20227;-62
2023/09/01 07:33:44;;;;;;;5.47;4.00;;;;;;;15.64;100.00;99863.56;5001463;28;20218;-61
2023/09/01 07:36:10;;;;;;;5.13;4.73;;;;;;;15.61;100.00;99869.81;5011164;28;20182;-61
2023/09/01 07:38:36;;;;;;;5.27;4.87;;;;;;;15.70;100.00;99863.06;5007319;28;20183;-61
2023/09/01 07:41:03;;;;;;;5.30;4.90;;;;;;;15.58;100.00;99874.44;5009299;28;20225;-61
2023/09/01 07:43:28;;;;;;;6.20;5.70;;;;;;;15.51;100.00;99871.50;5019038;28;20183;-62
2023/09/01 07:45:53;;;;;;;5.67;5.23;;;;;;;15.64;100.00;99881.72;5011028;28;20210;-61
2023/09/01 07:48:18;;;;;;;5.67;5.27;;;;;;;15.84;100.00;99879.34;5011041;28;20186;-60
2023/09/01 07:50:46;;;;;;;6.63;6.13;;;;;;;15.77;100.00;99881.59;5006273;28;20263;-62
2023/09/01 07:53:11;;;;;;;6.30;5.80;;;;;;;15.90;100.00;99881.44;5020916;28;20218;-62
2023/09/01 07:55:36;;;;;;;6.17;5.47;;;;;;;15.96;100.00;99891.31;5011163;28;20230;-61
2023/09/01 07:58:02;;;;;;;6.73;6.13;;;;;;;15.92;100.00;99887.34;5010810;28;20210;-63
2023/09/01 08:00:28;;;;;;;5.63;5.13;;;;;;;15.80;100.00;99891.69;5004778;28;20230;-61
2023/09/01 08:02:53;;;;;;;7.17;6.47;;;;;;;15.88;100.00;99883.34;5023383;28;20183;-62
2023/09/01 08:05:18;;;;;;;5.80;5.27;;;;;;;16.11;100.00;99897.03;5014703;28;20259;-61
2023/09/01 08:07:45;;;;;;;6.17;5.67;;;;;;;16.20;100.00;99891.13;5015328;28;20183;-61
2023/09/01 08:10:11;;;;;;;5.53;5.10;;;;;;;16.08;100.00;99892.94;5006344;28;20187;-63
2023/09/01 08:12:36;;;;;;;5.70;5.30;;;;;;;16.23;100.00;99892.63;5029101;28;20202;-63
2023/09/01 08:15:01;;;;;;;6.10;5.60;;;;;;;16.29;100.00;99892.13;5013444;28;20328;-64
2023/09/01 08:17:27;;;;;;;5.40;4.90;;;;;;;16.33;100.00;99890.13;5014906;28;20175;-64
2023/09/01 08:19:52;;;;;;;5.80;5.30;;;;;;;16.29;100.00;99885.16;5014823;28;20551;-61
2023/09/01 08:22:17;;;;;;;6.43;5.93;;;;;;;16.32;100.00;99889.28;5014310;28;20677;-61
2023/09/01 08:24:44;;;;;;;6.33;5.83;;;;;;;16.46;100.00;99891.56;5006996;28;20179;-62
2023/09/01 08:27:09;;;;;;;5.97;5.47;;;;;;;16.70;100.00;99887.06;5014500;28;20650;-62
2023/09/01 08:29:34;;;;;;;6.07;5.57;;;;;;;16.76;100.00;99884.75;5015023;28;20187;-64
2023/09/01 08:32:03;;;;;;;5.87;5.40;;;;;;;16.85;100.00;99890.16;5019423;28;20653;-63
2023/09/01 08:34:28;;;;;;;5.87;5.47;;;;;;;17.24;100.00;99896.34;5014121;28;20202;-63
2023/09/01 08:36:53;;;;;;;5.00;4.60;;;;;;;17.62;100.00;99888.78;5007452;28;20557;-61
2023/09/01 08:39:19;;;;;;;6.00;5.50;;;;;;;17.87;100.00;99887.44;5012102;28;20197;-62
2023/09/01 08:41:45;;;;;;;4.93;4.53;;;;;;;18.16;100.00;99880.59;5016727;28;20217;-63
2023/09/01 08:44:11;;;;;;;4.87;4.47;;;;;;;18.72;100.00;99884.22;5015956;28;20187;-63
2023/09/01 08:46:37;;;;;;;5.60;4.80;;;;;;;18.83;100.00;99881.44;5013797;28;20545;-63
2023/09/01 08:49:04;;;;;;;5.03;4.47;;;;;;;18.75;100.00;99880.50;5014247;28;20195;-63
2023/09/01 08:51:29;;;;;;;4.43;4.07;;;;;;;18.79;100.00;99887.06;5009340;28;20589;-64
2023/09/01 08:53:55;;;;;;;4.83;4.43;;;;;;;18.87;100.00;99887.19;5016521;28;20289;-60
2023/09/01 08:56:20;;;;;;;4.40;4.10;;;;;;;18.78;100.00;99883.66;5014027;28;20214;-61
2023/09/01 08:58:46;;;;;;;4.53;4.13;;;;;;;18.67;100.00;99889.84;5014131;28;20178;-61
2023/09/01 09:01:13;;;;;;;5.10;4.70;;;;;;;18.73;100.00;99883.25;5007738;28;20277;-60
2023/09/01 09:03:38;;;;;;;5.00;4.60;;;;;;;18.86;100.00;99888.13;5017527;28;20201;-62
2023/09/01 09:06:04;;;;;;;6.27;4.90;;;;;;;18.76;100.00;99892.56;5013612;28;20183;-63
2023/09/01 09:08:29;;;;;;;5.20;4.70;;;;;;;18.78;100.00;99885.41;5013983;28;20709;-62
2023/09/01 09:10:54;;;;;;;8.93;4.80;;;;;;;18.80;100.00;99891.31;5022634;28;20716;-63
2023/09/01 09:13:26;;;;;;;5.00;4.70;;;;;;;18.73;100.00;99882.41;5022722;28;20216;-63
2023/09/01 09:16:10;;;;;;;5.53;4.40;;;;;;;18.54;100.00;99887.56;5012912;28;20179;-62
2023/09/01 09:18:36;;;;;;;5.03;4.63;;;;;;;18.88;100.00;99884.41;5013773;28;20262;-62
2023/09/01 09:21:02;;;;;;;7.50;4.97;;;;;;;18.90;100.00;99879.06;5010636;28;20673;-62
2023/09/01 09:23:44;;;;;;;5.07;4.50;;;;;;;18.91;100.00;99885.13;5021427;28;20241;-62
2023/09/01 09:26:10;;;;;;;6.27;4.53;;;;;;;18.90;100.00;99886.88;5013312;28;20658;-63
2023/09/01 09:28:35;;;;;;;4.90;4.40;;;;;;;18.84;100.00;99885.69;5013650;28;20187;-62
2023/09/01 09:31:01;;;;;;;4.93;4.53;;;;;;;18.63;100.00;99888.50;5009705;28;20658;-63
2023/09/01 09:33:28;;;;;;;5.33;4.93;;;;;;;18.59;100.00;99881.09;5010207;28;20221;-63
2023/09/01 09:35:53;;;;;;;5.60;5.10;;;;;;;18.31;100.00;99884.44;5012211;28;20233;-63
2023/09/01 09:38:19;;;;;;;5.77;5.27;;;;;;;18.28;100.00;99891.69;5009272;28;20195;-63
2023/09/01 09:41:00;;;;;;;6.67;5.77;;;;;;;18.14;100.00;99892.94;5008676;28;20250;-63
2023/09/01 09:43:26;;;;;;;6.17;5.60;;;;;;;18.17;100.00;99897.88;5020588;28;20185;-63
2023/09/01 09:45:53;;;;;;;7.07;6.27;;;;;;;18.08;100.00;99902.13;5012645;28;20270;-63
2023/09/01 09:48:19;;;;;;;7.23;6.53;;;;;;;18.12;100.00;99898.31;5009449;28;20577;-64
2023/09/01 09:50:47;;;;;;;7.30;6.70;;;;;;;18.06;100.00;99904.88;5001828;28;20312;-65
2023/09/01 09:53:14;;;;;;;7.07;6.30;;;;;;;17.93;100.00;99908.66;5022276;28;20694;-62
2023/09/01 09:55:44;;;;;;;7.43;6.83;;;;;;;17.88;100.00;99915.09;5012232;28;20516;-63
2023/09/01 09:58:11;;;;;;;7.13;6.53;;;;;;;17.80;100.00;99914.13;5011831;28;20543;-61
2023/09/01 10:00:44;;;;;;;7.43;6.70;;;;;;;17.72;100.00;99909.59;5007263;28;20265;-61
2023/09/01 10:03:11;;;;;;;8.43;6.40;;;;;;;17.57;100.00;99912.56;5022497;28;20183;-61
2023/09/01 10:05:38;;;;;;;9.37;7.30;;;;;;;17.70;100.00;99909.75;5012699;28;20788;-66
2023/09/01 10:08:05;;;;;;;8.37;7.50;;;;;;;17.96;100.00;99911.84;5012929;28;20266;-63
2023/09/01 10:10:33;;;;;;;7.43;6.70;;;;;;;18.19;100.00;99903.75;5006621;28;20229;-64
2023/09/01 10:13:01;;;;;;;8.47;6.80;;;;;;;18.45;100.00;99896.19;5023637;28;20203;-63
2023/09/01 10:15:26;;;;;;;6.77;6.07;;;;;;;18.68;100.00;99888.03;5012487;28;20645;-63
2023/09/01 10:17:52;;;;;;;7.03;6.37;;;;;;;18.99;100.00;99880.84;5012727;28;20183;-64
2023/09/01 10:20:17;;;;;;;6.03;5.53;;;;;;;19.13;100.00;99881.34;5004587;28;20261;-63
2023/09/01 10:22:44;;;;;;;5.93;5.43;;;;;;;19.12;100.00;99884.91;5016987;28;20327;-64
2023/09/01 10:25:13;;;;;;;6.23;5.53;;;;;;;19.28;100.00;99876.47;5010045;28;20285;-63
2023/09/01 10:28:01;;;;;;;5.93;5.43;;;;;;;19.27;100.00;99869.59;5012681;28;20185;-64
2023/09/01 10:30:31;;;;;;;6.03;5.00;;;;;;;19.37;100.00;99865.16;5004794;28;20868;-62
2023/09/01 10:33:09;;;;;;;5.43;4.97;;;;;;;19.30;100.00;99864.09;5023674;28;20608;-63
2023/09/01 10:35:38;;;;;;;7.30;5.83;;;;;;;19.20;100.00;99864.13;5010844;28;20183;-64
2023/09/01 10:38:34;;;;;;;6.80;5.97;;;;;;;19.09;100.00;99859.13;5009422;28;20644;-63
2023/09/01 10:41:00;;;;;;;7.87;7.17;;;;;;;18.98;100.00;99853.13;5006718;28;20280;-63
2023/09/01 10:43:38;;;;;;;7.20;6.60;;;;;;;18.64;100.00;99853.66;5010974;28;20576;-63
2023/09/01 10:46:12;;;;;;;7.23;6.50;;;;;;;18.51;100.00;99861.78;5011902;28;20186;-63
2023/09/01 10:48:57;;;;;;;10.70;8.10;;;;;;;18.13;100.00;99860.06;5012534;28;20182;-61
2023/09/01 10:51:34;;;;;;;9.57;8.40;;;;;;;18.01;100.00;99867.19;5012360;28;20218;-62
2023/09/01 10:54:00;;;;;;;9.40;8.40;;;;;;;18.12;100.00;99858.41;5015382;28;20669;-64
2023/09/01 10:56:27;;;;;;;10.83;8.77;;;;;;;18.10;100.00;99871.56;5010583;28;20183;-64
2023/09/01 10:58:53;;;;;;;9.20;8.37;;;;;;;18.14;100.00;99878.13;5010812;28;20700;-63
2023/09/01 11:01:25;;;;;;;9.93;8.53;;;;;;;17.80;100.00;99880.28;5011903;28;20230;-62
2023/09/01 11:03:51;;;;;;;9.30;8.50;;;;;;;17.66;100.00;99878.91;5016445;28;20197;-62
2023/09/01 11:06:16;;;;;;;7.87;6.83;;;;;;;17.59;100.00;99884.66;5010093;28;20190;-62
2023/09/01 11:08:56;;;;;;;7.43;6.73;;;;;;;17.75;100.00;99885.94;5011566;28;20650;-62
2023/09/01 11:11:21;;;;;;;7.50;6.53;;;;;;;17.97;100.00;99874.44;5011970;28;20213;-64
2023/09/01 11:13:53;;;;;;;6.90;6.30;;;;;;;18.32;100.00;99874.81;5017079;28;20309;-62
2023/09/01 11:16:18;;;;;;;7.50;5.40;;;;;;;18.59;100.00;99870.66;5011327;28;20204;-63
2023/09/01 11:18:46;;;;;;;4.30;3.90;;;;;;;19.02;100.00;99870.13;5011253;28;20714;-62
2023/09/01 11:21:11;;;;;;;4.23;3.83;;;;;;;19.37;100.00;99864.34;5010711;28;20305;-62
2023/09/01 11:23:36;;;;;;;3.23;3.03;;;;;;;19.52;100.00;99858.47;5017477;28;20273;-63